createdAt,value
2017-07-12T00:00:54.926Z,100430.13
2017-07-12T00:03:22.324Z,100435.91
2017-07-12T00:05:49.736Z,100429.64
2017-07-12T00:08:17.141Z,100429.79
2017-07-12T00:10:44.544Z,100422.54
2017-07-12T00:13:11.943Z,100419.64
2017-07-12T00:15:39.352Z,100418.62
2017-07-12T00:18:06.751Z,100416.69
2017-07-12T00:20:34.165Z,100421.22
2017-07-12T00:23:01.562Z,100414.42
2017-07-12T00:25:29.204Z,100405.02
2017-07-12T00:27:56.607Z,100409.41
2017-07-12T00:30:24.021Z,100406.48
2017-07-12T00:32:51.422Z,100410.55
2017-07-12T00:35:18.828Z,100414.98
2017-07-12T00:37:46.225Z,100405.84
2017-07-12T00:40:13.943Z,100405.89
2017-07-12T00:42:41.344Z,100405.87
2017-07-12T00:45:08.749Z,100409.38
2017-07-12T00:47:36.161Z,100403.08
2017-07-12T00:50:03.570Z,100410.27
2017-07-12T00:52:30.970Z,100417.11
2017-07-12T00:54:58.375Z,100421.25
2017-07-12T00:57:25.782Z,100420.90
2017-07-12T00:59:53.195Z,100412.50
2017-07-12T01:02:20.592Z,100403.89
2017-07-12T01:04:48.001Z,100402.97
2017-07-12T01:07:15.395Z,100396.32
2017-07-12T01:09:42.828Z,100388.87
2017-07-12T01:12:10.230Z,100371.67
2017-07-12T01:14:37.632Z,100350.86
2017-07-12T01:17:05.041Z,100347.50
2017-07-12T01:19:32.436Z,100352.42
2017-07-12T01:21:59.843Z,100349.24
2017-07-12T01:24:27.239Z,100342.31
2017-07-12T01:26:54.638Z,100337.88
2017-07-12T01:29:22.042Z,100330.00
2017-07-12T01:31:49.446Z,100325.05
2017-07-12T01:34:16.843Z,100321.75
2017-07-12T01:36:44.259Z,100320.38
2017-07-12T01:39:11.643Z,100323.28
2017-07-12T01:41:39.043Z,100316.31
2017-07-12T01:44:06.443Z,100318.69
2017-07-12T01:46:33.851Z,100324.67
2017-07-12T01:49:01.255Z,100321.05
2017-07-12T01:51:28.959Z,100321.66
2017-07-12T01:53:56.356Z,100320.22
2017-07-12T01:56:23.759Z,100319.83
2017-07-12T01:58:51.159Z,100320.47
2017-07-12T02:01:18.565Z,100318.10
2017-07-12T02:03:45.977Z,100316.83
2017-07-12T02:06:13.378Z,100319.44
2017-07-12T02:08:40.788Z,100316.08
2017-07-12T02:11:08.408Z,100318.66
2017-07-12T02:13:35.812Z,100316.34
2017-07-12T02:16:03.523Z,100307.79
2017-07-12T02:18:30.934Z,100307.03
2017-07-12T02:20:58.330Z,100303.19
2017-07-12T02:23:25.743Z,100304.16
2017-07-12T02:25:53.151Z,100301.48
2017-07-12T02:28:20.555Z,100293.30
2017-07-12T02:30:47.960Z,100299.75
2017-07-12T02:33:15.368Z,100295.64
2017-07-12T02:35:42.769Z,100297.17
2017-07-12T02:38:10.176Z,100286.69
2017-07-12T02:40:37.579Z,100286.69
2017-07-12T02:43:04.988Z,100289.73
2017-07-12T02:45:32.392Z,100278.27
2017-07-12T02:47:59.797Z,100282.09
2017-07-12T02:50:27.196Z,100289.27
2017-07-12T02:52:54.604Z,100298.81
2017-07-12T02:55:22.319Z,100296.02
2017-07-12T02:57:49.735Z,100299.70
2017-07-12T03:00:17.128Z,100289.81
2017-07-12T03:02:44.534Z,100287.23
2017-07-12T03:05:11.935Z,100275.48
2017-07-12T03:07:39.348Z,100280.30
2017-07-12T03:10:07.059Z,100278.98
2017-07-12T03:12:34.461Z,100275.55
2017-07-12T03:15:01.865Z,100275.70
2017-07-12T03:17:29.259Z,100280.14
2017-07-12T03:19:56.663Z,100271.78
2017-07-12T03:22:24.063Z,100273.98
2017-07-12T03:24:51.468Z,100271.49
2017-07-12T03:27:18.867Z,100278.31
2017-07-12T03:29:46.294Z,100278.48
2017-07-12T03:32:13.686Z,100278.28
2017-07-12T03:34:41.083Z,100270.36
2017-07-12T03:37:08.492Z,100270.41
2017-07-12T03:39:47.704Z,100268.47
2017-07-12T03:42:15.095Z,100265.61
2017-07-12T03:44:42.503Z,100261.80
2017-07-12T03:47:09.906Z,100263.87
2017-07-12T03:49:37.307Z,100256.61
2017-07-12T03:52:04.706Z,100257.33
2017-07-12T03:54:32.107Z,100259.62
2017-07-12T03:56:59.506Z,100257.23
2017-07-12T03:59:26.910Z,100265.62
2017-07-12T04:01:54.380Z,100269.19
2017-07-12T04:04:21.822Z,100261.34
2017-07-12T04:06:49.208Z,100262.41
2017-07-12T04:09:16.632Z,100267.94
2017-07-12T04:11:44.038Z,100263.77
2017-07-12T04:14:11.684Z,100251.66
2017-07-12T04:16:39.083Z,100254.91
2017-07-12T04:19:06.487Z,100264.87
2017-07-12T04:21:33.943Z,100246.35
2017-07-12T04:24:01.355Z,100243.57
2017-07-12T04:26:28.751Z,100241.74
2017-07-12T04:28:56.183Z,100234.52
2017-07-12T04:31:23.584Z,100236.86
2017-07-12T04:33:51.235Z,100236.47
2017-07-12T04:36:18.647Z,100237.00
2017-07-12T04:38:46.043Z,100235.00
2017-07-12T04:41:13.463Z,100235.91
2017-07-12T04:43:40.854Z,100225.27
2017-07-12T04:46:08.265Z,100226.28
2017-07-12T04:48:35.671Z,100224.70
2017-07-12T04:51:03.074Z,100218.09
2017-07-12T04:53:30.473Z,100211.62
2017-07-12T04:55:57.886Z,100217.34
2017-07-12T04:58:25.279Z,100217.41
2017-07-12T05:00:52.691Z,100212.06
2017-07-12T05:03:20.106Z,100209.72
2017-07-12T05:05:47.523Z,100206.85
2017-07-12T05:08:14.926Z,100200.34
2017-07-12T05:10:42.344Z,100204.16
2017-07-12T05:13:09.771Z,100204.77
2017-07-12T05:15:37.184Z,100202.50
2017-07-12T05:18:04.579Z,100201.84
2017-07-12T05:20:31.992Z,100199.80
2017-07-12T05:22:59.399Z,100199.82
2017-07-12T05:25:27.108Z,100196.36
2017-07-12T05:27:54.516Z,100190.13
2017-07-12T05:30:21.919Z,100190.08
2017-07-12T05:32:49.321Z,100190.05
2017-07-12T05:35:16.727Z,100191.05
2017-07-12T05:37:44.128Z,100186.55
2017-07-12T05:40:11.552Z,100189.73
2017-07-12T05:42:38.947Z,100195.41
2017-07-12T05:45:06.351Z,100187.41
2017-07-12T05:47:33.768Z,100191.84
2017-07-12T05:50:01.160Z,100196.84
2017-07-12T05:52:28.823Z,100190.06
2017-07-12T05:54:56.491Z,100190.08
2017-07-12T05:57:23.898Z,100192.84
2017-07-12T05:59:51.292Z,100191.84
2017-07-12T06:02:18.696Z,100183.58
2017-07-12T06:04:46.097Z,100186.82
2017-07-12T06:07:13.508Z,100185.39
2017-07-12T06:09:40.911Z,100187.06
2017-07-12T06:12:08.355Z,100185.16
2017-07-12T06:14:35.760Z,100184.34
2017-07-12T06:17:03.167Z,100183.30
2017-07-12T06:19:30.566Z,100174.44
2017-07-12T06:21:57.990Z,100179.52
2017-07-12T06:24:25.387Z,100175.87
2017-07-12T06:26:52.804Z,100173.56
2017-07-12T06:29:20.206Z,100173.77
2017-07-12T06:31:47.616Z,100170.61
2017-07-12T06:34:15.010Z,100176.36
2017-07-12T06:36:42.735Z,100171.94
2017-07-12T06:39:10.131Z,100172.73
2017-07-12T06:41:37.570Z,100167.94
2017-07-12T06:44:04.970Z,100164.86
2017-07-12T06:46:32.663Z,100164.78
2017-07-12T06:49:00.059Z,100161.06
2017-07-12T06:51:27.488Z,100156.93
2017-07-12T06:53:55.187Z,100155.13
2017-07-12T06:56:22.751Z,100161.04
2017-07-12T06:58:50.163Z,100161.98
2017-07-12T07:01:17.547Z,100147.67
2017-07-12T07:03:44.955Z,100146.09
2017-07-12T07:06:12.351Z,100142.02
2017-07-12T07:08:39.766Z,100141.95
2017-07-12T07:11:07.191Z,100136.58
2017-07-12T07:13:34.595Z,100137.56
2017-07-12T07:16:01.994Z,100137.50
2017-07-12T07:18:29.403Z,100135.45
2017-07-12T07:20:56.800Z,100132.36
2017-07-12T07:23:24.198Z,100126.22
2017-07-12T07:25:51.598Z,100125.84
2017-07-12T07:28:19.012Z,100123.58
2017-07-12T07:30:46.415Z,100119.05
2017-07-12T07:33:13.847Z,100116.80
2017-07-12T07:35:41.248Z,100116.57
2017-07-12T07:38:08.659Z,100118.87
2017-07-12T07:40:36.056Z,100118.37
2017-07-12T07:43:03.467Z,100113.05
2017-07-12T07:45:31.112Z,100106.94
2017-07-12T07:50:25.212Z,100103.40
2017-07-12T07:52:52.622Z,100102.98
2017-07-12T07:55:20.324Z,100092.88
2017-07-12T07:57:47.732Z,100092.03
2017-07-12T08:00:15.133Z,100087.42
2017-07-12T08:02:42.535Z,100086.75
2017-07-12T08:05:09.941Z,100085.07
2017-07-12T08:07:37.337Z,100080.41
2017-07-12T08:10:04.742Z,100088.53
2017-07-12T08:12:32.145Z,100081.00
2017-07-12T08:14:59.555Z,100085.19
2017-07-12T08:17:26.952Z,100083.44
2017-07-12T08:19:54.354Z,100078.08
2017-07-12T08:22:21.750Z,100075.38
2017-07-12T08:24:49.161Z,100072.22
2017-07-12T08:27:16.554Z,100074.90
2017-07-12T08:29:43.958Z,100074.98
2017-07-12T08:34:38.060Z,100067.42
2017-07-12T08:37:05.455Z,100066.19
2017-07-12T08:39:33.110Z,100072.20
2017-07-12T08:42:00.510Z,100064.91
2017-07-12T08:44:27.924Z,100054.86
2017-07-12T08:46:55.327Z,100056.30
2017-07-12T08:49:22.734Z,100059.31
2017-07-12T08:51:50.135Z,100056.34
2017-07-12T08:54:17.548Z,100050.59
2017-07-12T08:56:44.949Z,100052.78
2017-07-12T08:59:12.571Z,100055.38
2017-07-12T09:01:39.964Z,100048.11
2017-07-12T09:04:07.374Z,100045.75
2017-07-12T09:06:34.982Z,100044.14
2017-07-12T09:09:02.388Z,100040.05
2017-07-12T09:11:29.788Z,100042.64
2017-07-12T09:13:57.193Z,100034.95
2017-07-12T09:16:24.587Z,100037.13
2017-07-12T09:18:52.014Z,100040.81
2017-07-12T09:21:19.551Z,100030.91
2017-07-12T09:23:46.946Z,100032.17
2017-07-12T09:33:36.546Z,100033.30
2017-07-12T09:36:03.947Z,100030.69
2017-07-12T09:38:31.338Z,100037.87
2017-07-12T09:40:58.731Z,100031.16
2017-07-12T09:43:26.131Z,100026.72
2017-07-12T09:45:53.535Z,100027.20
2017-07-12T09:48:20.936Z,100028.86
2017-07-12T09:50:48.332Z,100025.00
2017-07-12T09:53:16.091Z,100026.50
2017-07-12T09:55:43.500Z,100023.25
2017-07-12T09:58:10.891Z,100022.77
2017-07-12T10:00:38.334Z,100019.16
2017-07-12T10:03:05.717Z,100021.07
2017-07-12T10:05:33.187Z,100016.06
2017-07-12T10:08:00.604Z,100014.05
2017-07-12T10:10:28.008Z,100017.02
2017-07-12T10:12:55.402Z,100009.22
2017-07-12T10:15:22.819Z,100005.71
2017-07-12T10:17:50.192Z,100008.14
2017-07-12T10:20:17.595Z,100004.53
2017-07-12T10:22:44.988Z,100006.06
2017-07-12T10:25:12.387Z,100012.64
2017-07-12T10:27:39.776Z,100007.97
2017-07-12T10:30:07.172Z,99998.08
2017-07-12T10:32:34.559Z,99997.89
2017-07-12T10:35:01.942Z,99994.58
2017-07-12T10:37:29.335Z,99994.73
2017-07-12T10:39:56.727Z,99996.90
2017-07-12T10:42:24.118Z,99995.72
2017-07-12T10:44:51.507Z,99993.45
2017-07-12T10:47:18.900Z,99983.03
2017-07-12T10:49:46.503Z,99983.05
2017-07-12T10:52:13.695Z,99976.69
2017-07-12T10:57:14.971Z,99973.73
2017-07-12T10:59:42.355Z,99971.27
2017-07-12T11:02:09.754Z,99975.45
2017-07-12T11:04:37.135Z,99970.44
2017-07-12T11:07:04.530Z,99973.80
2017-07-12T11:09:31.923Z,99975.80
2017-07-12T11:11:59.311Z,99973.53
2017-07-12T11:14:26.726Z,99972.87
2017-07-12T11:16:54.107Z,99980.25
2017-07-12T11:19:21.497Z,99989.99
2017-07-12T11:21:48.896Z,99983.96
2017-07-12T11:24:16.286Z,99988.75
2017-07-12T11:26:43.678Z,99987.38
2017-07-12T11:29:11.067Z,99985.26
2017-07-12T11:31:38.459Z,99990.50
2017-07-12T11:34:05.844Z,99985.75
2017-07-12T11:36:33.230Z,99982.09
2017-07-12T11:39:00.931Z,99988.44
2017-07-12T11:41:28.338Z,99987.45
2017-07-12T11:43:55.714Z,99989.06
2017-07-12T11:46:23.104Z,99989.50
2017-07-12T11:48:50.502Z,99987.49
2017-07-12T11:51:17.903Z,99986.66
2017-07-12T11:53:45.300Z,99994.69
2017-07-12T11:56:12.687Z,100000.69
2017-07-12T11:58:40.087Z,99997.19
2017-07-12T12:01:07.476Z,99999.95
2017-07-12T12:03:34.865Z,100000.09
2017-07-12T12:06:02.543Z,99995.00
2017-07-12T12:08:29.946Z,99993.49
2017-07-12T12:10:57.559Z,99994.36
2017-07-12T12:13:24.961Z,99986.05
2017-07-12T12:15:52.341Z,99974.27
2017-07-12T12:18:19.730Z,99977.34
2017-07-12T12:20:47.127Z,99981.52
2017-07-12T12:23:14.510Z,99978.02
2017-07-12T12:25:41.891Z,99974.20
2017-07-12T12:28:09.282Z,99975.28
2017-07-12T12:30:36.663Z,99975.84
2017-07-12T12:33:04.056Z,99977.09
2017-07-12T12:35:31.434Z,99976.39
2017-07-12T12:37:58.823Z,99978.27
2017-07-12T12:40:26.223Z,99983.02
2017-07-12T12:42:53.649Z,99986.20
2017-07-12T12:45:21.047Z,99984.69
2017-07-12T12:47:48.439Z,99985.41
2017-07-12T12:50:15.838Z,99984.01
2017-07-12T12:52:43.235Z,99991.53
2017-07-12T12:55:10.627Z,99990.38
2017-07-12T12:57:38.031Z,99992.81
2017-07-12T13:00:05.423Z,99995.56
2017-07-12T13:02:32.806Z,99995.93
2017-07-12T13:05:05.798Z,99996.34
2017-07-12T13:07:33.186Z,99999.08
2017-07-12T13:10:00.575Z,99998.23
2017-07-12T13:12:27.969Z,99999.89
2017-07-12T13:14:55.364Z,100001.50
2017-07-12T13:17:22.760Z,100010.17
2017-07-12T13:19:50.947Z,100004.92
2017-07-12T13:22:18.339Z,100007.30
2017-07-12T13:24:45.739Z,100006.28
2017-07-12T13:27:13.135Z,100019.91
2017-07-12T13:29:40.539Z,100013.56
2017-07-12T13:32:07.928Z,100014.23
2017-07-12T13:34:35.322Z,100020.52
2017-07-12T13:37:02.719Z,100028.45
2017-07-12T13:39:30.121Z,100030.72
2017-07-12T13:41:57.511Z,100031.59
2017-07-12T13:44:25.111Z,100029.22
2017-07-12T13:46:52.501Z,100039.06
2017-07-12T13:49:19.899Z,100034.70
2017-07-12T13:51:47.294Z,100040.28
2017-07-12T13:54:14.690Z,100038.36
2017-07-12T13:56:42.079Z,100043.62
2017-07-12T13:59:09.474Z,100047.03
2017-07-12T14:01:36.936Z,100050.18
2017-07-12T14:04:04.318Z,100052.32
2017-07-12T14:06:31.721Z,100055.65
2017-07-12T14:08:59.143Z,100059.25
2017-07-12T14:11:26.540Z,100056.29
2017-07-12T14:13:53.946Z,100074.55
2017-07-12T14:16:21.401Z,100071.95
2017-07-12T14:18:48.752Z,100070.90
2017-07-12T14:21:16.159Z,100078.27
2017-07-12T14:23:43.559Z,100083.16
2017-07-12T14:26:10.968Z,100089.45
2017-07-12T14:28:38.387Z,100089.78
2017-07-12T14:31:05.783Z,100093.05
2017-07-12T14:33:33.189Z,100097.53
2017-07-12T14:36:00.587Z,100100.56
2017-07-12T14:38:28.006Z,100097.34
2017-07-12T14:40:55.403Z,100105.28
2017-07-12T14:43:22.807Z,100105.61
2017-07-12T14:45:50.210Z,100106.44
2017-07-12T14:48:17.632Z,100109.52
2017-07-12T14:50:45.030Z,100103.98
2017-07-12T14:53:12.439Z,100112.75
2017-07-12T14:55:39.844Z,100121.03
2017-07-12T14:58:07.241Z,100121.98
2017-07-12T15:00:34.642Z,100127.63
2017-07-12T15:03:02.078Z,100132.25
2017-07-12T15:05:29.480Z,100136.81
2017-07-12T15:07:56.879Z,100143.17
2017-07-12T15:10:24.284Z,100146.54
2017-07-12T15:12:51.687Z,100143.80
2017-07-12T15:15:19.091Z,100152.25
2017-07-12T15:17:46.500Z,100153.45
2017-07-12T15:20:13.911Z,100156.86
2017-07-12T15:22:41.314Z,100149.45
2017-07-12T15:25:08.747Z,100154.36
2017-07-12T15:27:36.142Z,100171.58
2017-07-12T15:30:03.528Z,100167.70
2017-07-12T15:32:30.932Z,100175.45
2017-07-12T15:34:58.323Z,100186.58
2017-07-12T15:37:25.728Z,100204.88
2017-07-12T15:39:53.331Z,100193.28
2017-07-12T15:42:20.743Z,100210.87
2017-07-12T15:44:48.167Z,100209.92
2017-07-12T15:47:15.559Z,100224.55
2017-07-12T15:49:42.953Z,100230.64
2017-07-12T15:52:10.360Z,100239.12
2017-07-12T15:54:37.752Z,100253.03
2017-07-12T15:57:05.151Z,100254.55
2017-07-12T15:59:32.543Z,100260.18
2017-07-12T16:01:59.943Z,100268.77
2017-07-12T16:04:27.339Z,100272.20
2017-07-12T16:06:54.731Z,100267.14
2017-07-12T16:09:22.125Z,100280.55
2017-07-12T16:11:49.529Z,100289.28
2017-07-12T16:14:16.919Z,100300.69
2017-07-12T16:16:44.327Z,100318.32
2017-07-12T16:19:11.715Z,100328.99
2017-07-12T16:21:39.111Z,100330.57
2017-07-12T16:24:06.827Z,100327.45
2017-07-12T16:26:34.223Z,100353.42
2017-07-12T16:29:01.618Z,100358.20
2017-07-12T16:31:29.007Z,100374.61
2017-07-12T16:33:56.403Z,100379.48
2017-07-12T16:36:23.805Z,100397.00
2017-07-12T16:38:51.200Z,100403.22
2017-07-12T16:41:18.591Z,100410.37
2017-07-12T16:43:45.996Z,100415.80
2017-07-12T16:46:13.391Z,100420.19
2017-07-12T16:48:40.784Z,100430.41
2017-07-12T16:51:08.177Z,100442.78
2017-07-12T16:53:35.583Z,100471.27
2017-07-12T16:56:02.980Z,100464.54
2017-07-12T16:58:30.373Z,100477.95
2017-07-12T17:00:57.761Z,100489.16
2017-07-12T17:03:25.167Z,100494.13
2017-07-12T17:05:52.880Z,100511.91
2017-07-12T17:08:20.280Z,100500.84
2017-07-12T17:10:47.665Z,100503.02
2017-07-12T17:13:15.095Z,100505.45
2017-07-12T17:15:42.471Z,100532.81
2017-07-12T17:18:09.869Z,100531.27
2017-07-12T17:20:37.263Z,100526.70
2017-07-12T17:23:04.654Z,100536.92
2017-07-12T17:25:32.051Z,100545.81
2017-07-12T17:27:59.443Z,100547.30
2017-07-12T17:30:26.838Z,100558.41
2017-07-12T17:32:54.243Z,100552.75
2017-07-12T17:35:21.628Z,100564.68
2017-07-12T17:37:49.028Z,100569.54
2017-07-12T17:40:17.307Z,100578.50
2017-07-12T17:42:44.935Z,100577.21
2017-07-12T17:45:12.324Z,100591.35
2017-07-12T17:47:39.745Z,100594.92
2017-07-12T17:50:07.137Z,100593.48
2017-07-12T17:52:34.526Z,100595.27
2017-07-12T17:55:01.918Z,100599.27
2017-07-12T17:57:29.307Z,100607.65
2017-07-12T17:59:56.748Z,100608.29
2017-07-12T18:02:24.191Z,100608.41
2017-07-12T18:04:51.539Z,100616.45
2017-07-12T18:07:18.933Z,100625.78
2017-07-12T18:09:46.329Z,100625.42
2017-07-12T18:12:13.738Z,100626.99
2017-07-12T18:14:41.127Z,100632.11
2017-07-12T18:17:08.536Z,100637.76
2017-07-12T18:19:35.933Z,100650.91
2017-07-12T18:22:03.334Z,100659.48
2017-07-12T18:24:30.735Z,100664.52
2017-07-12T18:26:58.124Z,100672.44
2017-07-12T18:29:25.531Z,100688.91
2017-07-12T18:31:52.923Z,100684.66
2017-07-12T18:34:20.326Z,100695.05
2017-07-12T18:36:47.712Z,100701.31
2017-07-12T18:39:15.119Z,100712.83
2017-07-12T18:41:42.513Z,100710.73
2017-07-12T18:44:09.915Z,100724.11
2017-07-12T18:46:37.552Z,100727.53
2017-07-12T18:49:04.946Z,100728.57
2017-07-12T18:51:32.330Z,100735.14
2017-07-12T18:53:59.730Z,100737.34
2017-07-12T18:56:27.127Z,100745.33
2017-07-12T18:58:54.572Z,100751.12
2017-07-12T19:01:21.951Z,100756.80
2017-07-12T19:03:49.351Z,100756.16
2017-07-12T19:06:16.742Z,100768.17
2017-07-12T19:11:17.919Z,100782.87
2017-07-12T19:13:45.312Z,100782.59
2017-07-12T19:16:12.695Z,100793.76
2017-07-12T19:18:40.499Z,100796.63
2017-07-12T19:21:07.895Z,100801.70
2017-07-12T19:23:35.378Z,100808.48
2017-07-12T19:26:02.696Z,100813.25
2017-07-12T19:28:30.091Z,100822.37
2017-07-12T19:30:57.490Z,100828.28
2017-07-12T19:33:24.891Z,100834.41
2017-07-12T19:35:52.293Z,100844.98
2017-07-12T19:38:20.011Z,100846.80
2017-07-12T19:40:47.407Z,100848.31
2017-07-12T19:43:14.903Z,100848.38
2017-07-12T19:45:42.299Z,100852.72
2017-07-12T19:48:09.695Z,100859.65
2017-07-12T19:50:37.110Z,100865.03
2017-07-12T19:53:04.491Z,100877.77
2017-07-12T19:55:31.903Z,100885.83
2017-07-12T19:57:59.295Z,100890.38
2017-07-12T20:00:26.697Z,100885.91
2017-07-12T20:02:54.087Z,100896.64
2017-07-12T20:05:21.487Z,100900.29
2017-07-12T20:07:48.879Z,100901.98
2017-07-12T20:10:16.284Z,100907.50
2017-07-12T20:12:43.687Z,100906.91
2017-07-12T20:15:11.088Z,100912.38
2017-07-12T20:17:38.495Z,100917.47
2017-07-12T20:20:05.891Z,100918.00
2017-07-12T20:22:33.515Z,100921.98
2017-07-12T20:25:00.907Z,100925.91
2017-07-12T20:27:28.303Z,100929.58
2017-07-12T20:29:55.696Z,100939.84
2017-07-12T20:32:23.343Z,100937.77
2017-07-12T20:34:50.755Z,100938.28
2017-07-12T20:37:18.157Z,100948.89
2017-07-12T20:39:45.543Z,100950.22
2017-07-12T20:42:12.948Z,100955.64
2017-07-12T20:44:40.344Z,100963.25
2017-07-12T20:47:07.740Z,100965.45
2017-07-12T20:49:35.127Z,100972.26
2017-07-12T20:52:02.522Z,100974.20
2017-07-12T20:54:29.915Z,100975.89
2017-07-12T20:56:57.329Z,100983.25
2017-07-12T20:59:24.715Z,100985.36
2017-07-12T21:01:52.112Z,100984.12
2017-07-12T21:04:19.499Z,100989.22
2017-07-12T21:06:46.903Z,100993.91
2017-07-12T21:09:14.296Z,100998.77
2017-07-12T21:11:41.699Z,100996.95
2017-07-12T21:14:09.391Z,101003.73
2017-07-12T21:16:36.812Z,100996.15
2017-07-12T21:19:04.200Z,101012.26
2017-07-12T21:21:31.587Z,101010.12
2017-07-12T21:23:58.995Z,101019.65
2017-07-12T21:26:26.390Z,101023.23
2017-07-12T21:28:53.784Z,101026.68
2017-07-12T21:31:21.195Z,101022.37
2017-07-12T21:33:48.588Z,101028.88
2017-07-12T21:36:15.987Z,101034.55
2017-07-12T21:38:43.383Z,101038.19
2017-07-12T21:41:10.786Z,101036.73
2017-07-12T21:43:38.182Z,101039.28
2017-07-12T21:46:05.571Z,101031.70
2017-07-12T21:48:32.975Z,101038.47
2017-07-12T21:51:00.366Z,101038.96
2017-07-12T21:53:45.247Z,101042.72
2017-07-12T21:56:30.222Z,101044.22
2017-07-12T21:59:15.187Z,101057.86
2017-07-12T22:02:00.168Z,101065.09
2017-07-12T22:04:45.147Z,101071.32
2017-07-12T22:07:30.110Z,101076.89
2017-07-12T22:10:14.959Z,101080.17
2017-07-12T22:12:59.907Z,101087.34
2017-07-12T22:15:44.801Z,101086.00
2017-07-12T22:18:29.869Z,101088.02
2017-07-12T22:21:14.836Z,101094.18
2017-07-12T22:23:59.925Z,101094.30
2017-07-12T22:26:44.807Z,101099.69
2017-07-12T22:29:29.651Z,101106.08
2017-07-12T22:32:14.472Z,101109.06
2017-07-12T22:34:59.432Z,101106.30
2017-07-12T22:37:32.467Z,101111.40
2017-07-12T22:40:05.247Z,101117.66
2017-07-12T22:42:38.150Z,101123.33
2017-07-12T22:45:05.548Z,101131.51
2017-07-12T22:47:32.949Z,101130.17
2017-07-12T22:50:00.338Z,101129.89
2017-07-12T22:52:27.733Z,101137.77
2017-07-12T22:54:55.131Z,101136.66
2017-07-12T22:57:22.528Z,101134.58
2017-07-12T22:59:49.927Z,101140.00
2017-07-12T23:02:17.355Z,101142.66
2017-07-12T23:04:44.764Z,101143.47
2017-07-12T23:07:12.163Z,101143.08
2017-07-12T23:09:39.588Z,101145.19
2017-07-12T23:12:06.972Z,101151.52
2017-07-12T23:14:34.367Z,101153.30
2017-07-12T23:17:01.771Z,101152.66
2017-07-12T23:19:29.171Z,101150.48
2017-07-12T23:21:56.580Z,101157.30
2017-07-12T23:24:23.970Z,101163.13
2017-07-12T23:26:51.387Z,101156.81
2017-07-12T23:29:18.825Z,101158.66
2017-07-12T23:31:46.223Z,101164.50
2017-07-12T23:34:13.631Z,101161.19
2017-07-12T23:36:41.022Z,101160.67
2017-07-12T23:39:08.432Z,101160.09
2017-07-12T23:41:35.835Z,101172.35
2017-07-12T23:44:03.255Z,101175.23
2017-07-12T23:46:30.647Z,101176.05
2017-07-12T23:48:58.043Z,101180.98
2017-07-12T23:51:25.449Z,101180.88
2017-07-12T23:53:52.839Z,101188.14
2017-07-12T23:56:20.237Z,101181.64
2017-07-12T23:58:47.628Z,101179.80
